createdAt,value
2023-04-07T00:01:03.380Z,18.70
2023-04-07T00:03:30.786Z,18.10
2023-04-07T00:05:57.983Z,18.87
2023-04-07T00:08:24.991Z,17.77
2023-04-07T00:10:52.072Z,20.08
2023-04-07T00:13:19.010Z,18.73
2023-04-07T00:15:46.055Z,19.07
2023-04-07T00:18:13.097Z,19.53
2023-04-07T00:20:41.029Z,18.00
2023-04-07T00:23:08.044Z,18.67
2023-04-07T00:25:35.041Z,17.23
2023-04-07T00:28:02.041Z,17.77
2023-04-07T00:30:29.022Z,17.43
2023-04-07T00:32:57.059Z,18.33
2023-04-07T00:35:24.649Z,17.07
2023-04-07T00:37:51.653Z,16.93
2023-04-07T00:40:18.667Z,17.73
2023-04-07T00:42:45.855Z,16.47
2023-04-07T00:45:12.865Z,16.83
2023-04-07T00:47:40.379Z,17.40
2023-04-07T00:50:08.399Z,16.57
2023-04-07T00:52:35.981Z,16.43
2023-04-07T00:55:03.046Z,15.43
2023-04-07T00:57:29.994Z,15.97
2023-04-07T00:59:57.501Z,15.77
2023-04-07T01:05:30.079Z,15.10
2023-04-07T01:08:14.893Z,15.80
2023-04-07T01:10:53.533Z,15.33
2023-04-07T01:13:49.447Z,15.80
2023-04-07T01:16:29.669Z,15.53
2023-04-07T01:19:09.136Z,14.97
2023-04-07T01:21:39.532Z,16.57
2023-04-07T01:24:30.242Z,16.00
2023-04-07T01:27:33.775Z,16.43
2023-04-07T01:30:03.488Z,16.03
2023-04-07T01:32:31.651Z,15.57
2023-04-07T01:35:00.942Z,15.43
2023-04-07T01:37:28.861Z,14.73
2023-04-07T01:39:55.985Z,15.13
2023-04-07T01:42:24.149Z,14.97
2023-04-07T01:44:53.116Z,13.83
2023-04-07T01:47:20.688Z,15.13
2023-04-07T01:49:49.936Z,15.13
2023-04-07T01:52:17.413Z,15.17
2023-04-07T01:54:44.731Z,15.13
2023-04-07T01:57:11.719Z,16.10
2023-04-07T01:59:38.804Z,15.30
2023-04-07T02:02:05.899Z,14.83
2023-04-07T02:04:40.502Z,15.50
2023-04-07T02:07:21.261Z,15.13
2023-04-07T02:09:50.003Z,15.23
2023-04-07T02:12:17.798Z,14.43
2023-04-07T02:14:45.038Z,14.83
2023-04-07T02:17:13.607Z,14.93
2023-04-07T02:19:42.853Z,15.43
2023-04-07T02:22:10.510Z,14.80
2023-04-07T02:24:37.492Z,14.37
2023-04-07T02:27:04.471Z,14.37
2023-04-07T02:29:31.490Z,14.30
2023-04-07T02:31:58.662Z,14.33
2023-04-07T02:34:25.796Z,13.87
2023-04-07T02:36:52.915Z,15.20
2023-04-07T02:39:20.098Z,12.87
2023-04-07T02:41:47.118Z,13.87
2023-04-07T02:44:14.344Z,13.77
2023-04-07T02:46:41.907Z,13.63
2023-04-07T02:49:09.012Z,13.93
2023-04-07T02:51:36.053Z,13.03
2023-04-07T02:54:03.048Z,14.03
2023-04-07T02:56:30.035Z,14.70
2023-04-07T02:58:57.080Z,12.87
2023-04-07T03:01:24.428Z,13.43
2023-04-07T03:03:51.875Z,13.77
2023-04-07T03:06:19.259Z,13.00
2023-04-07T03:08:46.585Z,12.67
2023-04-07T03:11:13.787Z,12.63
2023-04-07T03:13:41.055Z,12.43
2023-04-07T03:16:08.187Z,11.70
2023-04-07T03:18:35.405Z,11.43
2023-04-07T03:21:03.092Z,11.83
2023-04-07T03:23:31.541Z,12.73
2023-04-07T03:25:58.505Z,12.27
2023-04-07T03:28:25.529Z,12.07
2023-04-07T03:30:52.727Z,12.73
2023-04-07T03:33:19.862Z,12.17
2023-04-07T03:35:46.967Z,11.87
2023-04-07T03:38:13.994Z,12.67
2023-04-07T03:40:41.440Z,12.20
2023-04-07T03:43:12.560Z,11.73
2023-04-07T03:45:39.857Z,13.07
2023-04-07T03:48:10.689Z,12.43
2023-04-07T03:50:39.071Z,11.87
2023-04-07T03:53:06.506Z,12.47
2023-04-07T03:55:37.089Z,12.43
2023-04-07T03:58:04.092Z,12.93
2023-04-07T04:00:33.231Z,11.83
2023-04-07T04:03:01.392Z,12.60
2023-04-07T04:05:28.430Z,12.33
2023-04-07T04:07:55.517Z,13.13
2023-04-07T04:10:22.892Z,13.10
2023-04-07T04:12:50.840Z,12.53
2023-04-07T04:15:17.980Z,12.00
2023-04-07T04:17:45.011Z,12.07
2023-04-07T04:20:12.390Z,12.83
2023-04-07T04:22:39.558Z,13.93
2023-04-07T04:25:06.929Z,13.17
2023-04-07T04:27:34.086Z,14.30
2023-04-07T04:30:01.177Z,12.43
2023-04-07T04:32:28.737Z,13.07
2023-04-07T04:34:56.147Z,12.70
2023-04-07T04:37:23.187Z,12.53
2023-04-07T04:39:50.841Z,12.97
2023-04-07T04:42:18.505Z,11.60
2023-04-07T04:44:45.617Z,12.60
2023-04-07T04:47:12.706Z,12.47
2023-04-07T04:49:40.333Z,11.93
2023-04-07T04:52:08.073Z,12.17
2023-04-07T04:54:35.456Z,12.50
2023-04-07T04:57:02.606Z,12.33
2023-04-07T04:59:29.567Z,11.80
2023-04-07T05:01:56.648Z,11.97
2023-04-07T05:04:23.951Z,12.60
2023-04-07T05:06:51.523Z,11.03
2023-04-07T05:09:18.523Z,12.00
2023-04-07T05:11:45.688Z,12.07
2023-04-07T05:14:12.888Z,11.33
2023-04-07T05:16:40.023Z,10.97
2023-04-07T05:19:07.271Z,11.10
2023-04-07T05:21:34.391Z,11.43
2023-04-07T05:24:01.463Z,12.70
2023-04-07T05:26:28.449Z,11.93
2023-04-07T05:28:55.537Z,12.33
2023-04-07T05:31:22.578Z,12.57
2023-04-07T05:33:53.049Z,13.33
2023-04-07T05:36:20.418Z,13.30
2023-04-07T05:38:47.531Z,14.80
2023-04-07T05:41:14.782Z,15.80
2023-04-07T05:43:41.848Z,15.97
2023-04-07T05:46:09.117Z,15.77
2023-04-07T05:48:36.399Z,17.00
2023-04-07T05:51:03.853Z,17.80
2023-04-07T05:53:31.025Z,17.47
2023-04-07T05:55:58.052Z,18.20
2023-04-07T05:58:25.759Z,18.17
2023-04-07T06:00:52.819Z,17.47
2023-04-07T06:03:20.009Z,15.90
2023-04-07T06:05:50.529Z,16.90
2023-04-07T06:08:17.631Z,16.77
2023-04-07T06:10:44.755Z,17.53
2023-04-07T06:13:11.781Z,17.20
2023-04-07T06:15:38.803Z,17.00
2023-04-07T06:18:05.975Z,15.80
2023-04-07T06:20:33.373Z,16.37
2023-04-07T06:23:00.427Z,16.77
2023-04-07T06:25:27.546Z,16.77
2023-04-07T06:27:55.634Z,16.97
2023-04-07T06:30:22.863Z,15.73
2023-04-07T06:32:49.973Z,15.40
2023-04-07T06:35:17.293Z,15.37
2023-04-07T06:37:44.401Z,15.67
2023-04-07T06:40:11.594Z,14.73
2023-04-07T06:42:38.662Z,15.13
2023-04-07T06:45:06.543Z,15.00
2023-04-07T06:47:33.683Z,14.27
2023-04-07T06:50:01.229Z,14.00
2023-04-07T06:52:28.591Z,14.77
2023-04-07T06:54:55.928Z,14.55
2023-04-07T06:57:23.110Z,14.32
2023-04-07T06:59:50.141Z,14.45
2023-04-07T07:02:17.264Z,13.90
2023-04-07T07:04:44.531Z,14.00
2023-04-07T07:07:11.511Z,13.05
2023-04-07T07:09:38.568Z,12.85
2023-04-07T07:12:06.508Z,12.63
2023-04-07T07:14:33.576Z,12.98
2023-04-07T07:17:01.218Z,13.15
2023-04-07T07:19:28.247Z,13.10
2023-04-07T07:21:55.975Z,12.50
2023-04-07T07:24:22.994Z,12.02
2023-04-07T07:26:50.034Z,11.32
2023-04-07T07:29:17.139Z,11.07
2023-04-07T07:31:44.227Z,9.80
2023-04-07T07:34:11.226Z,9.00
2023-04-07T07:36:38.309Z,8.77
2023-04-07T07:39:06.133Z,9.30
2023-04-07T07:41:33.257Z,8.82
2023-04-07T07:44:00.319Z,7.95
2023-04-07T07:46:27.518Z,8.50
2023-04-07T07:48:54.603Z,8.27
2023-04-07T07:51:21.978Z,8.60
2023-04-07T07:53:49.236Z,8.23
2023-04-07T07:56:16.645Z,8.48
2023-04-07T07:58:43.945Z,8.63
2023-04-07T08:01:11.148Z,8.90
2023-04-07T08:03:38.612Z,7.60
2023-04-07T08:06:06.643Z,7.60
2023-04-07T08:08:33.669Z,6.63
2023-04-07T08:11:01.046Z,6.03
2023-04-07T08:13:28.424Z,6.45
2023-04-07T08:15:55.592Z,6.70
2023-04-07T08:18:23.171Z,7.15
2023-04-07T08:20:50.360Z,6.70
2023-04-07T08:23:17.595Z,7.38
2023-04-07T08:25:44.675Z,7.15
2023-04-07T08:28:11.755Z,5.78
2023-04-07T08:30:38.798Z,5.75
2023-04-07T08:33:06.735Z,5.63
2023-04-07T08:35:33.931Z,6.10
2023-04-07T08:38:03.029Z,6.38
2023-04-07T08:40:30.558Z,6.88
2023-04-07T08:43:00.462Z,6.25
2023-04-07T08:45:28.059Z,6.60
2023-04-07T08:47:58.435Z,6.07
2023-04-07T08:50:28.250Z,6.82
2023-04-07T08:53:00.696Z,6.18
2023-04-07T08:55:27.833Z,6.00
2023-04-07T08:57:55.538Z,7.03
2023-04-07T09:00:22.797Z,6.13
2023-04-07T09:02:52.057Z,6.80
2023-04-07T09:05:19.199Z,6.43
2023-04-07T09:07:46.256Z,5.57
2023-04-07T09:10:13.318Z,6.20
2023-04-07T09:12:40.592Z,6.07
2023-04-07T09:15:08.788Z,6.35
2023-04-07T09:17:36.187Z,7.20
2023-04-07T09:20:04.846Z,7.15
2023-04-07T09:22:37.535Z,6.65
2023-04-07T09:25:31.090Z,4.72
2023-04-07T09:28:05.227Z,4.10
2023-04-07T09:30:34.393Z,2.90
2023-04-07T09:33:02.385Z,3.20
2023-04-07T09:35:29.905Z,3.53
2023-04-07T09:38:10.744Z,2.78
2023-04-07T09:40:38.735Z,2.40
2023-04-07T09:43:07.191Z,2.10
2023-04-07T09:45:39.319Z,1.77
2023-04-07T09:48:26.764Z,2.00
2023-04-07T09:51:14.035Z,2.03
2023-04-07T09:54:01.418Z,1.40
2023-04-07T09:56:50.631Z,1.60
2023-04-07T09:59:18.225Z,1.63
2023-04-07T10:01:45.357Z,1.52
2023-04-07T10:04:13.459Z,1.55
2023-04-07T10:06:42.141Z,2.10
2023-04-07T10:09:10.360Z,2.25
2023-04-07T10:11:37.936Z,1.98
2023-04-07T10:14:05.680Z,1.77
2023-04-07T10:16:33.122Z,1.80
2023-04-07T10:19:00.817Z,1.60
2023-04-07T10:21:28.052Z,1.77
2023-04-07T10:24:19.953Z,1.80
2023-04-07T10:27:03.801Z,1.60
2023-04-07T10:29:38.791Z,1.80
2023-04-07T10:32:06.881Z,2.17
2023-04-07T10:34:54.887Z,1.65
2023-04-07T10:37:23.151Z,1.90
2023-04-07T10:40:19.097Z,1.88
2023-04-07T10:42:49.784Z,2.40
2023-04-07T10:45:17.583Z,2.38
2023-04-07T10:48:02.932Z,2.33
2023-04-07T10:50:30.347Z,2.42
2023-04-07T10:53:16.474Z,2.53
2023-04-07T10:55:47.294Z,2.70
2023-04-07T10:58:25.999Z,2.40
2023-04-07T11:01:08.055Z,2.53
2023-04-07T11:03:52.666Z,2.30
2023-04-07T11:06:20.171Z,2.67
2023-04-07T11:08:50.735Z,2.20
2023-04-07T11:11:42.516Z,1.90
2023-04-07T11:14:09.582Z,2.33
2023-04-07T11:16:43.349Z,1.92
2023-04-07T11:19:10.641Z,2.08
2023-04-07T11:21:38.261Z,1.90
2023-04-07T11:24:05.865Z,2.53
2023-04-07T11:26:39.564Z,2.03
2023-04-07T11:29:07.141Z,3.15
2023-04-07T11:31:34.622Z,2.17
2023-04-07T11:34:05.182Z,2.00
2023-04-07T11:36:40.302Z,2.58
2023-04-07T11:39:21.446Z,2.17
2023-04-07T11:41:50.867Z,1.95
2023-04-07T11:44:18.448Z,1.85
2023-04-07T11:47:04.261Z,2.33
2023-04-07T11:49:32.488Z,1.80
2023-04-07T11:52:07.354Z,2.22
2023-04-07T11:54:52.239Z,1.90
2023-04-07T11:57:29.590Z,1.75
2023-04-07T12:00:23.144Z,1.92
2023-04-07T12:02:50.495Z,2.00
2023-04-07T12:05:18.114Z,1.90
2023-04-07T12:07:55.524Z,2.30
2023-04-07T12:10:27.719Z,2.20
2023-04-07T12:12:55.254Z,2.50
2023-04-07T12:15:23.034Z,2.30
2023-04-07T12:17:50.714Z,2.33
2023-04-07T12:20:17.880Z,3.35
2023-04-07T12:22:45.028Z,2.42
2023-04-07T12:25:12.019Z,2.15
2023-04-07T12:27:43.558Z,2.45
2023-04-07T12:30:13.548Z,2.80
2023-04-07T12:32:40.687Z,3.03
2023-04-07T12:35:08.754Z,3.05
2023-04-07T12:37:35.855Z,2.45
2023-04-07T12:40:03.260Z,2.58
2023-04-07T12:42:30.264Z,2.30
2023-04-07T12:44:57.241Z,2.35
2023-04-07T12:47:24.528Z,2.50
2023-04-07T12:49:51.618Z,2.92
2023-04-07T12:52:18.680Z,2.30
2023-04-07T12:54:45.752Z,2.78
2023-04-07T12:57:13.044Z,2.55
2023-04-07T12:59:40.106Z,2.25
2023-04-07T13:02:08.379Z,2.78
2023-04-07T13:04:37.043Z,2.03
2023-04-07T13:07:04.234Z,2.22
2023-04-07T13:09:31.339Z,2.22
2023-04-07T13:11:58.643Z,2.13
2023-04-07T13:14:25.988Z,2.35
2023-04-07T13:16:53.415Z,2.42
2023-04-07T13:19:20.590Z,2.85
2023-04-07T13:21:48.321Z,2.60
2023-04-07T13:24:15.962Z,2.95
2023-04-07T13:26:43.195Z,2.03
2023-04-07T13:29:10.663Z,2.30
2023-04-07T13:31:37.855Z,2.00
2023-04-07T13:34:04.935Z,2.15
2023-04-07T13:36:32.037Z,1.67
2023-04-07T13:38:59.761Z,1.60
2023-04-07T13:41:26.797Z,1.77
2023-04-07T13:43:53.938Z,2.03
2023-04-07T13:46:28.392Z,1.70
2023-04-07T13:48:56.776Z,1.90
2023-04-07T13:51:23.875Z,1.65
2023-04-07T13:53:51.142Z,1.60
2023-04-07T13:56:18.301Z,1.77
2023-04-07T13:58:45.329Z,1.88
2023-04-07T14:01:12.660Z,1.55
2023-04-07T14:03:39.764Z,2.13
2023-04-07T14:06:07.050Z,1.95
2023-04-07T14:08:34.085Z,1.73
2023-04-07T14:11:02.598Z,1.75
2023-04-07T14:13:29.714Z,1.50
2023-04-07T14:15:56.839Z,1.50
2023-04-07T14:18:24.688Z,1.98
2023-04-07T14:20:51.775Z,1.60
2023-04-07T14:23:33.818Z,2.22
2023-04-07T14:26:03.742Z,1.67
2023-04-07T14:28:30.821Z,1.65
2023-04-07T14:30:57.958Z,1.88
2023-04-07T14:33:26.098Z,2.13
2023-04-07T14:35:53.286Z,2.15
2023-04-07T14:38:24.528Z,2.03
2023-04-07T14:40:52.842Z,2.28
2023-04-07T14:43:19.959Z,2.17
2023-04-07T14:45:47.092Z,2.50
2023-04-07T14:48:14.165Z,2.47
2023-04-07T14:50:41.369Z,2.17
2023-04-07T14:53:08.701Z,2.33
2023-04-07T14:55:36.646Z,1.67
2023-04-07T14:58:03.613Z,1.98
2023-04-07T15:00:30.732Z,1.90
2023-04-07T15:02:57.897Z,1.58
2023-04-07T15:05:28.057Z,2.33
2023-04-07T15:07:55.342Z,1.85
2023-04-07T15:10:22.695Z,2.20
2023-04-07T15:12:50.525Z,1.90
2023-04-07T15:15:18.101Z,2.05
2023-04-07T15:17:45.681Z,1.83
2023-04-07T15:20:13.426Z,2.28
2023-04-07T15:22:40.743Z,2.35
2023-04-07T15:25:08.755Z,2.35
2023-04-07T15:27:36.198Z,2.78
2023-04-07T15:30:03.708Z,2.67
2023-04-07T15:32:34.015Z,2.83
2023-04-07T15:35:01.175Z,2.70
2023-04-07T15:37:28.256Z,2.70
2023-04-07T15:39:55.314Z,2.63
2023-04-07T15:42:22.380Z,3.03
2023-04-07T15:44:50.856Z,2.55
2023-04-07T15:47:17.820Z,2.33
2023-04-07T15:49:44.810Z,2.28
2023-04-07T15:52:13.600Z,2.00
2023-04-07T15:54:40.573Z,1.77
2023-04-07T15:57:07.616Z,1.60
2023-04-07T15:59:36.107Z,1.67
2023-04-07T16:02:03.371Z,1.70
2023-04-07T16:04:30.669Z,1.73
2023-04-07T16:06:57.947Z,1.60
2023-04-07T16:09:25.875Z,1.77
2023-04-07T16:11:52.958Z,2.70
2023-04-07T16:14:19.969Z,1.98
2023-04-07T16:16:47.079Z,2.10
2023-04-07T16:19:14.583Z,1.92
2023-04-07T16:21:41.723Z,1.85
2023-04-07T16:24:08.924Z,1.73
2023-04-07T16:26:35.980Z,2.28
2023-04-07T16:29:03.043Z,2.05
2023-04-07T16:31:30.120Z,1.63
2023-04-07T16:33:57.624Z,2.00
2023-04-07T16:36:24.795Z,2.00
2023-04-07T16:38:52.431Z,2.20
2023-04-07T16:41:20.290Z,2.15
2023-04-07T16:43:47.659Z,2.15
2023-04-07T16:46:14.864Z,2.10
2023-04-07T16:48:41.872Z,2.00
2023-04-07T16:51:08.822Z,1.70
2023-04-07T16:53:35.881Z,2.38
2023-04-07T16:56:03.257Z,2.22
2023-04-07T16:58:31.034Z,2.30
2023-04-07T17:00:58.087Z,2.38
2023-04-07T17:03:25.222Z,1.70
2023-04-07T17:05:52.676Z,1.70
2023-04-07T17:08:19.697Z,2.05
2023-04-07T17:10:46.721Z,1.80
2023-04-07T17:13:13.709Z,1.95
2023-04-07T17:15:41.262Z,1.83
2023-04-07T17:18:08.422Z,2.28
2023-04-07T17:20:35.524Z,1.90
2023-04-07T17:23:02.564Z,2.28
2023-04-07T17:25:29.609Z,1.75
2023-04-07T17:27:56.749Z,2.25
2023-04-07T17:30:23.731Z,1.90
2023-04-07T17:32:50.892Z,2.50
2023-04-07T17:35:18.376Z,1.98
2023-04-07T17:37:46.048Z,2.30
2023-04-07T17:40:13.466Z,2.40
2023-04-07T17:42:41.304Z,2.70
2023-04-07T17:45:09.038Z,2.35
2023-04-07T17:47:37.413Z,2.53
2023-04-07T17:50:08.863Z,2.97
2023-04-07T17:52:36.192Z,2.95
2023-04-07T17:55:03.291Z,2.50
2023-04-07T17:57:30.973Z,2.85
2023-04-07T17:59:58.155Z,2.47
2023-04-07T18:02:26.549Z,2.58
2023-04-07T18:04:54.372Z,2.35
2023-04-07T18:07:21.560Z,2.53
2023-04-07T18:09:49.526Z,2.60
2023-04-07T18:12:16.596Z,2.57
2023-04-07T18:14:43.750Z,3.25
2023-04-07T18:17:10.971Z,2.42
2023-04-07T18:19:38.124Z,2.97
2023-04-07T18:22:05.707Z,2.88
2023-04-07T18:24:32.942Z,2.45
2023-04-07T18:27:00.191Z,2.63
2023-04-07T18:29:27.261Z,2.75
2023-04-07T18:31:54.603Z,2.70
2023-04-07T18:34:21.682Z,2.53
2023-04-07T18:36:49.225Z,2.93
2023-04-07T18:39:16.469Z,2.40
2023-04-07T18:41:45.590Z,2.85
2023-04-07T18:44:13.337Z,2.40
2023-04-07T18:46:40.730Z,2.35
2023-04-07T18:49:08.073Z,3.20
2023-04-07T18:51:35.478Z,2.40
2023-04-07T18:54:02.625Z,2.90
2023-04-07T18:56:32.781Z,3.03
2023-04-07T18:59:00.169Z,3.45
2023-04-07T19:01:27.599Z,3.30
2023-04-07T19:03:55.059Z,3.67
2023-04-07T19:06:22.057Z,3.43
2023-04-07T19:08:50.827Z,3.67
2023-04-07T19:11:18.493Z,3.10
2023-04-07T19:13:45.946Z,3.65
2023-04-07T19:16:13.307Z,3.38
2023-04-07T19:18:40.411Z,3.90
2023-04-07T19:21:08.661Z,3.60
2023-04-07T19:23:36.225Z,4.33
2023-04-07T19:26:03.840Z,3.90
2023-04-07T19:28:31.401Z,3.37
2023-04-07T19:30:58.628Z,3.67
2023-04-07T19:33:25.802Z,3.50
2023-04-07T19:35:52.876Z,4.55
2023-04-07T19:38:20.015Z,3.70
2023-04-07T19:40:47.078Z,3.67
2023-04-07T19:43:16.424Z,4.35
2023-04-07T19:45:44.021Z,4.30
2023-04-07T19:48:11.925Z,4.37
2023-04-07T19:50:43.960Z,4.77
2023-04-07T19:53:16.228Z,4.63
2023-04-07T19:55:44.503Z,4.50
2023-04-07T19:58:12.172Z,5.63
2023-04-07T20:00:41.120Z,4.33
2023-04-07T20:03:08.322Z,4.65
2023-04-07T20:05:37.303Z,4.47
2023-04-07T20:08:04.372Z,4.65
2023-04-07T20:10:31.764Z,4.78
2023-04-07T20:12:58.858Z,5.17
2023-04-07T20:15:26.021Z,5.53
2023-04-07T20:17:53.145Z,4.80
2023-04-07T20:20:20.639Z,5.00
2023-04-07T20:22:47.949Z,5.17
2023-04-07T20:25:14.968Z,5.47
2023-04-07T20:27:42.056Z,5.43
2023-04-07T20:30:09.413Z,5.38
2023-04-07T20:32:36.706Z,5.87
2023-04-07T20:35:04.473Z,5.03
2023-04-07T20:37:31.875Z,5.38
2023-04-07T20:39:59.095Z,5.37
2023-04-07T20:42:26.164Z,5.13
2023-04-07T20:44:58.978Z,6.05
2023-04-07T20:47:26.181Z,5.32
2023-04-07T20:49:55.344Z,5.93
2023-04-07T20:52:22.604Z,5.50
2023-04-07T20:54:49.803Z,5.40
2023-04-07T20:57:16.982Z,5.00
2023-04-07T20:59:44.198Z,5.50
2023-04-07T21:02:11.513Z,5.60
2023-04-07T21:04:38.854Z,5.57
2023-04-07T21:07:06.181Z,6.82
2023-04-07T21:09:33.288Z,6.20
2023-04-07T21:12:03.771Z,6.07
2023-04-07T21:14:32.249Z,6.70
2023-04-07T21:16:59.843Z,6.00
2023-04-07T21:19:26.922Z,6.90
2023-04-07T21:21:54.329Z,5.60
2023-04-07T21:24:22.339Z,6.50
2023-04-07T21:26:49.988Z,6.10
2023-04-07T21:29:16.949Z,5.82
2023-04-07T21:31:44.051Z,5.60
2023-04-07T21:34:11.135Z,5.40
2023-04-07T21:36:38.491Z,5.93
2023-04-07T21:39:05.739Z,5.83
2023-04-07T21:41:33.054Z,6.43
2023-04-07T21:44:00.055Z,6.10
2023-04-07T21:46:27.606Z,5.70
2023-04-07T21:48:55.355Z,6.20
2023-04-07T21:51:22.845Z,5.83
2023-04-07T21:53:49.869Z,6.50
2023-04-07T21:56:16.842Z,6.87
2023-04-07T21:58:46.326Z,6.47
2023-04-07T22:01:13.812Z,6.13
2023-04-07T22:03:41.592Z,5.77
2023-04-07T22:06:08.669Z,5.47
2023-04-07T22:08:36.350Z,6.70
2023-04-07T22:11:03.545Z,6.10
2023-04-07T22:13:30.605Z,5.77
2023-04-07T22:15:59.862Z,6.53
2023-04-07T22:18:27.093Z,5.90
2023-04-07T22:20:54.287Z,6.37
2023-04-07T22:23:21.320Z,6.43
2023-04-07T22:25:49.356Z,6.20
2023-04-07T22:28:16.475Z,6.83
2023-04-07T22:30:43.663Z,6.40
2023-04-07T22:33:10.741Z,6.93
2023-04-07T22:35:38.436Z,6.87
2023-04-07T22:38:06.093Z,5.37
2023-04-07T22:40:33.261Z,8.33
2023-04-07T22:43:01.409Z,6.60
2023-04-07T22:45:29.273Z,6.87
2023-04-07T22:47:56.369Z,5.90
2023-04-07T22:50:23.436Z,7.67
2023-04-07T22:52:50.556Z,6.67
2023-04-07T22:55:17.653Z,6.60
2023-04-07T22:57:44.690Z,7.57
2023-04-07T23:00:12.891Z,6.63
2023-04-07T23:02:40.305Z,7.10
2023-04-07T23:05:10.241Z,7.32
2023-04-07T23:07:38.091Z,6.90
2023-04-07T23:10:07.951Z,6.93
2023-04-07T23:12:35.221Z,6.90
2023-04-07T23:15:02.191Z,6.73
2023-04-07T23:17:29.178Z,6.77
2023-04-07T23:19:56.216Z,7.27
2023-04-07T23:22:23.634Z,8.20
2023-04-07T23:24:50.789Z,7.87
2023-04-07T23:27:17.748Z,7.77
2023-04-07T23:29:44.829Z,7.97
2023-04-07T23:32:12.163Z,7.90
2023-04-07T23:34:40.816Z,8.00
2023-04-07T23:37:07.853Z,7.53
2023-04-07T23:39:34.864Z,7.60
2023-04-07T23:42:02.200Z,8.00
2023-04-07T23:44:29.201Z,8.73
2023-04-07T23:46:56.451Z,8.93
2023-04-07T23:49:23.557Z,7.57
2023-04-07T23:51:51.357Z,8.90
2023-04-07T23:54:18.521Z,8.50
2023-04-07T23:56:45.844Z,9.30
2023-04-07T23:59:13.588Z,9.45
